createdAt,value
2018-01-26T00:02:19.468Z,7.90
2018-01-26T00:07:22.777Z,7.90
2018-01-26T00:12:25.850Z,7.80
2018-01-26T00:17:29.698Z,7.90
2018-01-26T00:22:33.932Z,7.90
2018-01-26T00:27:37.819Z,7.90
2018-01-26T00:32:42.207Z,7.90
2018-01-26T00:42:51.121Z,7.80
2018-01-26T00:58:03.847Z,7.80
2018-01-26T01:03:07.904Z,7.80
2018-01-26T01:08:11.759Z,7.70
2018-01-26T01:13:15.599Z,7.70
2018-01-26T01:18:19.474Z,7.70
2018-01-26T01:23:22.966Z,7.60
2018-01-26T01:28:26.839Z,7.60
2018-01-26T01:33:31.440Z,7.60
2018-01-26T01:38:36.046Z,7.50
2018-01-26T01:43:39.131Z,7.50
2018-01-26T01:48:42.233Z,7.50
2018-01-26T01:53:46.840Z,7.40
2018-01-26T01:58:50.742Z,7.40
2018-01-26T02:03:53.827Z,7.40
2018-01-26T02:14:02.179Z,7.40
2018-01-26T02:19:05.659Z,7.40
2018-01-26T02:24:33.051Z,7.40
2018-01-26T02:29:36.877Z,7.50
2018-01-26T02:39:44.393Z,7.40
2018-01-26T02:44:47.862Z,7.50
2018-01-26T02:49:51.012Z,7.50
2018-01-26T02:54:54.863Z,7.50
2018-01-26T02:59:57.956Z,7.50
2018-01-26T03:15:10.740Z,7.50
2018-01-26T03:25:19.048Z,7.50
2018-01-26T03:30:23.668Z,7.50
2018-01-26T03:35:28.640Z,7.50
2018-01-26T03:40:33.232Z,7.70
2018-01-26T03:45:37.449Z,7.70
2018-01-26T03:50:41.319Z,7.70
2018-01-26T03:55:45.542Z,7.60
2018-01-26T04:10:59.144Z,7.60
2018-01-26T04:16:02.238Z,7.60
2018-01-26T04:21:05.346Z,7.60
2018-01-26T04:31:14.404Z,7.60
2018-01-26T04:36:19.045Z,7.50
2018-01-26T04:41:22.160Z,7.40
2018-01-26T04:46:25.655Z,7.40
2018-01-26T04:51:30.264Z,7.30
2018-01-26T04:56:34.862Z,7.30
2018-01-26T05:06:42.424Z,7.30
2018-01-26T05:16:50.741Z,7.20
2018-01-26T05:21:55.353Z,7.20
2018-01-26T05:26:58.447Z,7.10
2018-01-26T05:32:01.545Z,7.10
2018-01-26T05:37:04.637Z,7.10
2018-01-26T05:42:08.541Z,7.00
2018-01-26T06:02:25.253Z,7.00
2018-01-26T06:12:34.820Z,7.00
2018-01-26T06:27:47.649Z,7.10
2018-01-26T06:43:02.145Z,7.20
2018-01-26T06:48:05.997Z,7.20
2018-01-26T06:58:13.944Z,7.20
2018-01-26T07:03:17.826Z,7.20
2018-01-26T07:08:20.946Z,7.20
2018-01-26T07:13:24.892Z,7.10
2018-01-26T07:18:29.098Z,7.10
2018-01-26T07:28:37.425Z,7.30
2018-01-26T07:33:40.947Z,7.40
2018-01-26T07:38:44.036Z,7.30
2018-01-26T07:43:48.266Z,7.30
2018-01-26T07:48:51.360Z,7.30
2018-01-26T07:53:54.472Z,7.30
2018-01-26T07:58:57.576Z,7.30
2018-01-26T08:09:06.651Z,7.50
2018-01-26T08:14:09.778Z,7.60
2018-01-26T08:19:14.009Z,7.60
2018-01-26T08:24:17.129Z,7.70
2018-01-26T08:29:20.245Z,7.80
2018-01-26T08:34:24.107Z,7.80
2018-01-26T08:39:27.228Z,7.90
2018-01-26T08:44:31.476Z,8.00
2018-01-26T08:49:35.322Z,8.10
2018-01-26T09:04:47.704Z,8.10
2018-01-26T09:20:00.078Z,8.30
2018-01-26T09:35:12.456Z,8.90
2018-01-26T09:40:15.573Z,9.00
2018-01-26T10:05:37.412Z,9.20
2018-01-26T10:10:40.516Z,9.30
2018-01-26T10:20:48.833Z,9.50
2018-01-26T10:25:52.699Z,9.70
2018-01-26T10:46:09.908Z,10.10
2018-01-26T10:51:14.144Z,10.20
2018-01-26T10:56:18.391Z,10.40
2018-01-26T11:01:21.488Z,10.40
2018-01-26T11:06:24.603Z,10.60
2018-01-26T11:11:28.116Z,10.60
2018-01-26T11:16:31.237Z,10.40
2018-01-26T11:21:35.509Z,10.40
2018-01-26T11:26:38.627Z,10.30
2018-01-26T11:31:42.505Z,10.20
2018-01-26T11:36:46.005Z,10.20
2018-01-26T11:46:55.988Z,10.20
2018-01-26T11:51:59.488Z,10.30
2018-01-26T11:57:03.723Z,10.30
2018-01-26T12:02:07.568Z,10.20
2018-01-26T12:12:15.167Z,10.20
2018-01-26T12:17:19.443Z,10.20
2018-01-26T12:22:22.924Z,10.30
2018-01-26T12:37:36.037Z,10.20
2018-01-26T12:42:39.571Z,10.30
2018-01-26T12:47:44.207Z,10.30
2018-01-26T12:52:48.140Z,10.20
2018-01-26T12:57:52.005Z,10.20
2018-01-26T13:02:56.608Z,10.20
2018-01-26T13:08:00.106Z,10.30
2018-01-26T13:13:03.579Z,10.40
2018-01-26T13:18:07.439Z,10.30
2018-01-26T13:23:10.535Z,10.30
2018-01-26T13:33:19.204Z,10.20
2018-01-26T13:38:23.091Z,10.10
2018-01-26T13:43:27.287Z,10.10
2018-01-26T13:48:30.371Z,10.10
2018-01-26T13:53:34.259Z,10.10
2018-01-26T14:03:43.590Z,10.10
2018-01-26T14:08:46.685Z,10.10
2018-01-26T14:13:50.172Z,10.10
2018-01-26T14:18:54.765Z,10.10
2018-01-26T14:29:03.465Z,9.90
2018-01-26T14:49:21.425Z,9.70
2018-01-26T14:54:25.688Z,9.70
2018-01-26T14:59:29.587Z,9.70
2018-01-26T15:09:37.096Z,9.50
2018-01-26T15:14:40.172Z,9.60
2018-01-26T15:19:44.012Z,9.50
2018-01-26T15:24:47.087Z,9.50
2018-01-26T15:29:50.560Z,9.40
2018-01-26T15:34:53.656Z,9.30
2018-01-26T15:39:56.743Z,9.20
2018-01-26T15:45:00.964Z,9.10
2018-01-26T16:00:13.719Z,8.80
2018-01-26T16:05:16.807Z,8.70
2018-01-26T16:10:19.894Z,8.60
2018-01-26T16:15:23.777Z,8.30
2018-01-26T16:20:29.115Z,8.20
2018-01-26T16:30:37.064Z,8.00
2018-01-26T16:35:40.184Z,8.00
2018-01-26T16:40:45.363Z,7.80
2018-01-26T16:45:49.648Z,7.80
2018-01-26T16:50:52.780Z,7.70
2018-01-26T16:55:55.852Z,7.60
2018-01-26T17:00:59.323Z,7.50
2018-01-26T17:11:08.036Z,7.40
2018-01-26T17:21:17.100Z,7.20
2018-01-26T17:31:25.068Z,7.10
2018-01-26T17:36:28.159Z,7.00
2018-01-26T17:51:40.139Z,7.00
2018-01-26T18:01:48.529Z,6.70
2018-01-26T18:06:52.384Z,6.80
2018-01-26T18:17:01.434Z,6.80
2018-01-26T18:52:31.551Z,7.00
2018-01-26T19:12:48.973Z,7.00
2018-01-26T19:17:52.069Z,6.90
2018-01-26T19:53:21.841Z,6.60
2018-01-26T19:58:26.697Z,6.60
2018-01-26T20:03:32.757Z,6.60
2018-01-26T20:14:26.913Z,6.50
2018-01-26T20:19:31.144Z,6.50
2018-01-26T20:49:58.897Z,5.90
2018-01-26T21:00:06.869Z,5.90
2018-01-26T21:15:20.383Z,5.70
2018-01-26T21:25:30.196Z,5.40
2018-01-26T21:35:38.205Z,5.20
2018-01-26T21:50:52.083Z,5.00
2018-01-26T22:01:00.021Z,5.00
2018-01-26T22:06:09.070Z,4.90
2018-01-26T22:11:12.949Z,5.00
2018-01-26T22:21:21.979Z,4.80
2018-01-26T22:31:30.331Z,4.70
2018-01-26T22:36:33.477Z,4.70
2018-01-26T22:41:37.560Z,4.60
2018-01-26T22:46:40.664Z,4.60
2018-01-26T22:51:44.896Z,4.70
2018-01-26T22:56:48.068Z,4.70
2018-01-26T23:01:51.167Z,4.80
2018-01-26T23:06:54.259Z,4.80
2018-01-26T23:17:02.920Z,4.80
2018-01-26T23:27:10.443Z,4.80
2018-01-26T23:32:14.325Z,4.80
2018-01-26T23:37:18.629Z,4.90
2018-01-26T23:42:22.576Z,5.00
2018-01-26T23:47:26.073Z,5.00
2018-01-26T23:52:30.304Z,5.00
